Time;durP1;ratioP1;P1;durP2;ratioP2;P2;SDS_P1;SDS_P2;PMS_P1;PMS_P2;Temp;Humidity;BMP_temperature;BMP_pressure;BME280_temperature;BME280_humidity;BME280_pressure;Samples;Min_cycle;Max_cycle;Signal;HPM_P1;HPM_P2
2021/03/22 00:01:58;;;;;;;6.70;3.43;;;1.20;99.90;;;;;;5034926;28;20214;-72
2021/03/22 00:04:26;;;;;;;7.77;3.90;;;1.10;99.90;;;;;;5026449;28;20245;-71
2021/03/22 00:06:52;;;;;;;7.27;3.57;;;1.10;99.90;;;;;;5019567;28;20700;-71
2021/03/22 00:09:18;;;;;;;8.20;3.67;;;1.10;99.90;;;;;;5026181;28;20227;-71
2021/03/22 00:11:45;;;;;;;6.07;3.30;;;1.00;99.90;;;;;;5019509;28;20207;-70
2021/03/22 00:14:11;;;;;;;8.60;4.23;;;1.00;99.90;;;;;;5026914;28;20314;-70
2021/03/22 00:16:37;;;;;;;8.43;3.97;;;1.00;99.90;;;;;;5026473;28;20289;-70
2021/03/22 00:19:04;;;;;;;8.13;3.53;;;1.00;99.90;;;;;;5027441;28;20224;-70
2021/03/22 00:21:31;;;;;;;8.23;3.30;;;1.00;99.90;;;;;;5036383;28;20294;-71
2021/03/22 00:23:59;;;;;;;6.83;3.43;;;1.00;99.90;;;;;;5035805;28;20536;-70
2021/03/22 00:26:25;;;;;;;8.23;3.37;;;0.90;99.90;;;;;;5033756;28;20287;-71
2021/03/22 00:28:52;;;;;;;6.40;3.33;;;0.90;99.90;;;;;;5032314;28;20275;-72
2021/03/22 00:31:18;;;;;;;9.27;3.50;;;0.90;99.90;;;;;;5035546;28;20318;-72
2021/03/22 00:33:44;;;;;;;11.90;3.87;;;0.90;99.90;;;;;;5036721;28;20241;-71
2021/03/22 00:36:11;;;;;;;7.33;3.60;;;0.80;99.90;;;;;;5037485;28;20293;-72
2021/03/22 00:38:38;;;;;;;10.77;3.90;;;0.80;99.90;;;;;;5032016;28;20285;-70
2021/03/22 00:41:05;;;;;;;9.40;4.00;;;0.80;99.90;;;;;;5030051;28;20210;-71
2021/03/22 00:43:32;;;;;;;8.07;3.93;;;0.80;99.90;;;;;;5027426;28;20316;-71
2021/03/22 00:46:02;;;;;;;8.87;3.83;;;0.80;99.90;;;;;;5040101;28;20217;-72
2021/03/22 00:48:30;;;;;;;9.80;4.30;;;0.70;99.90;;;;;;5035991;28;20254;-71
2021/03/22 00:50:57;;;;;;;5.50;3.60;;;0.80;99.90;;;;;;5034844;28;20341;-72
2021/03/22 00:53:24;;;;;;;8.30;3.97;;;0.70;99.90;;;;;;5024025;28;20293;-73
2021/03/22 00:55:52;;;;;;;8.53;3.63;;;0.70;99.90;;;;;;5036334;28;20217;-71
2021/03/22 00:58:19;;;;;;;6.60;3.60;;;0.70;99.90;;;;;;5038104;28;20199;-72
2021/03/22 01:00:48;;;;;;;12.93;4.17;;;0.60;99.90;;;;;;5034711;28;21323;-72
2021/03/22 01:03:17;;;;;;;8.40;3.57;;;0.60;99.90;;;;;;5029233;28;20215;-73
2021/03/22 01:05:43;;;;;;;7.83;3.60;;;0.60;99.90;;;;;;5023428;28;20239;-72
2021/03/22 01:08:10;;;;;;;5.87;3.77;;;0.60;99.90;;;;;;5032162;28;20226;-72
2021/03/22 01:10:40;;;;;;;8.60;4.03;;;0.60;99.90;;;;;;5030896;28;20207;-72
2021/03/22 01:13:12;;;;;;;8.03;4.60;;;0.60;99.90;;;;;;5030725;28;20293;-72
2021/03/22 01:15:39;;;;;;;8.93;4.23;;;0.50;99.90;;;;;;5025744;28;20233;-71
2021/03/22 01:18:06;;;;;;;9.27;4.57;;;0.50;99.90;;;;;;5027738;28;20215;-71
2021/03/22 01:20:37;;;;;;;10.20;4.13;;;0.50;99.90;;;;;;5023939;28;20293;-70
2021/03/22 01:23:04;;;;;;;7.10;4.27;;;0.50;99.90;;;;;;5028345;28;20258;-71
2021/03/22 01:25:31;;;;;;;7.27;4.20;;;0.50;99.90;;;;;;5034640;28;20721;-71
2021/03/22 01:27:57;;;;;;;6.57;3.97;;;0.50;99.90;;;;;;5028423;28;20679;-71
2021/03/22 01:30:32;;;;;;;7.87;3.90;;;0.50;99.90;;;;;;5022579;28;20340;-72
2021/03/22 01:32:59;;;;;;;9.47;4.03;;;0.50;99.90;;;;;;5032804;28;20210;-71
2021/03/22 01:35:25;;;;;;;8.17;4.23;;;0.40;99.90;;;;;;5035619;28;20214;-71
2021/03/22 01:37:52;;;;;;;8.97;3.60;;;0.40;99.90;;;;;;5033117;28;20234;-73
2021/03/22 01:40:33;;;;;;;7.93;3.80;;;0.40;99.90;;;;;;5033339;28;20222;-72
2021/03/22 01:43:07;;;;;;;7.37;3.60;;;0.40;99.90;;;;;;5027248;28;20343;-73
2021/03/22 01:45:36;;;;;;;7.37;3.70;;;0.40;99.90;;;;;;5031284;28;20298;-72
2021/03/22 01:48:04;;;;;;;7.77;3.40;;;0.40;99.90;;;;;;5033528;28;20263;-70
2021/03/22 01:50:31;;;;;;;8.90;3.97;;;0.40;99.90;;;;;;5035964;28;20242;-71
2021/03/22 01:52:59;;;;;;;7.57;3.73;;;0.40;99.90;;;;;;5031631;28;20249;-70
2021/03/22 01:55:26;;;;;;;8.00;3.97;;;0.30;99.90;;;;;;5032865;28;20242;-72
2021/03/22 01:57:53;;;;;;;5.67;3.33;;;0.30;99.90;;;;;;5033956;28;20569;-71
2021/03/22 02:00:26;;;;;;;7.93;3.70;;;0.30;99.90;;;;;;5031692;28;20207;-72
2021/03/22 02:02:57;;;;;;;7.77;3.37;;;0.30;99.90;;;;;;5023126;28;20206;-71
2021/03/22 02:05:27;;;;;;;7.63;3.47;;;0.20;99.90;;;;;;5023656;28;20325;-73
2021/03/22 02:08:03;;;;;;;5.03;2.80;;;0.20;99.90;;;;;;5027109;28;20318;-72
2021/03/22 02:10:30;;;;;;;4.80;2.87;;;0.20;99.90;;;;;;5028027;28;20704;-71
2021/03/22 02:12:56;;;;;;;5.03;3.00;;;0.20;99.90;;;;;;5026697;28;20297;-71
2021/03/22 02:15:23;;;;;;;6.03;3.40;;;0.20;99.90;;;;;;5025704;28;20736;-72
2021/03/22 02:18:03;;;;;;;6.17;3.37;;;0.10;99.90;;;;;;5031616;28;20202;-72
2021/03/22 02:21:07;;;;;;;11.97;3.10;;;0.10;99.90;;;;;;5025391;28;20206;-71
2021/03/22 02:24:07;;;;;;;8.63;3.77;;;0.10;99.90;;;;;;5032988;28;20348;-71
2021/03/22 02:27:11;;;;;;;4.47;3.23;;;0.10;99.90;;;;;;5029107;28;20194;-72
2021/03/22 02:29:48;;;;;;;10.37;3.33;;;0.20;99.90;;;;;;5026368;28;20659;-73
2021/03/22 02:32:49;;;;;;;6.93;3.37;;;0.20;99.90;;;;;;5026281;28;20261;-72
2021/03/22 02:35:22;;;;;;;7.67;3.83;;;0.20;99.90;;;;;;5033261;28;20298;-73
2021/03/22 02:37:54;;;;;;;6.93;2.90;;;0.20;99.90;;;;;;5023305;28;20265;-71
2021/03/22 02:40:29;;;;;;;8.13;3.13;;;0.20;99.90;;;;;;5024816;28;20211;-72
2021/03/22 02:42:57;;;;;;;6.77;3.27;;;0.10;99.90;;;;;;5029976;28;20210;-72
2021/03/22 02:45:27;;;;;;;7.20;3.80;;;0.10;99.90;;;;;;5029848;28;20663;-72
2021/03/22 02:47:54;;;;;;;6.13;3.10;;;0.10;99.90;;;;;;5025325;28;20388;-71
2021/03/22 02:50:25;;;;;;;8.87;3.67;;;0.10;99.90;;;;;;5026515;28;20235;-72
2021/03/22 02:53:21;;;;;;;8.20;3.43;;;0.10;99.90;;;;;;5031846;28;20210;-72
2021/03/22 02:55:58;;;;;;;5.27;3.33;;;0.10;99.90;;;;;;5031640;28;20302;-72
2021/03/22 02:58:30;;;;;;;6.20;3.60;;;0.10;99.90;;;;;;5034515;28;20230;-72
2021/03/22 03:01:02;;;;;;;10.07;4.03;;;0.10;99.90;;;;;;5026936;28;20215;-72
2021/03/22 03:03:31;;;;;;;6.97;3.60;;;0.10;99.90;;;;;;5030942;28;20240;-72
2021/03/22 03:05:59;;;;;;;9.40;3.23;;;0.10;99.90;;;;;;5026187;28;20304;-72
2021/03/22 03:08:31;;;;;;;10.83;3.70;;;0.10;99.90;;;;;;5026356;28;20322;-71
2021/03/22 03:10:58;;;;;;;10.80;3.67;;;0.00;99.90;;;;;;5027215;28;20640;-72
2021/03/22 03:13:24;;;;;;;9.77;3.10;;;0.10;99.90;;;;;;5029747;28;20227;-71
2021/03/22 03:15:51;;;;;;;7.90;3.77;;;0.10;99.90;;;;;;5028943;28;20289;-72
2021/03/22 03:18:18;;;;;;;9.63;3.73;;;0.10;99.90;;;;;;5034398;28;20237;-72
2021/03/22 03:20:44;;;;;;;8.87;3.47;;;0.10;99.90;;;;;;5020824;28;20229;-71
2021/03/22 03:23:12;;;;;;;8.30;3.60;;;0.10;99.90;;;;;;5032240;28;20202;-72
2021/03/22 03:25:38;;;;;;;9.10;3.90;;;0.10;99.90;;;;;;5030014;28;20308;-72
2021/03/22 03:28:05;;;;;;;11.87;3.83;;;0.10;99.90;;;;;;5016808;28;20230;-72
2021/03/22 03:30:35;;;;;;;7.07;3.97;;;0.10;99.90;;;;;;5026951;28;20753;-72
2021/03/22 03:33:03;;;;;;;12.07;4.63;;;0.10;99.90;;;;;;5022494;28;21297;-73
2021/03/22 03:35:35;;;;;;;8.07;4.37;;;0.10;99.90;;;;;;5025085;28;20289;-72
2021/03/22 03:38:02;;;;;;;9.10;4.03;;;0.10;99.90;;;;;;5032657;28;20214;-71
2021/03/22 03:40:32;;;;;;;10.77;4.20;;;0.10;99.90;;;;;;5027277;28;20679;-71
2021/03/22 03:43:00;;;;;;;8.83;4.10;;;0.10;99.90;;;;;;5025204;28;20224;-71
2021/03/22 03:45:29;;;;;;;12.40;4.60;;;0.10;99.90;;;;;;5033010;28;20253;-72
2021/03/22 03:47:55;;;;;;;13.33;4.73;;;0.10;99.90;;;;;;5032616;28;20256;-72
2021/03/22 03:50:25;;;;;;;9.43;4.00;;;0.10;99.90;;;;;;5029740;28;20209;-72
2021/03/22 03:52:52;;;;;;;8.80;3.60;;;0.10;99.90;;;;;;5025984;28;20623;-72
2021/03/22 03:55:22;;;;;;;10.83;4.37;;;0.10;99.90;;;;;;5030553;28;20260;-73
2021/03/22 03:57:50;;;;;;;9.40;3.90;;;0.10;99.90;;;;;;5021859;28;20255;-73
2021/03/22 04:00:23;;;;;;;7.10;3.67;;;0.00;99.90;;;;;;5028285;28;20273;-72
2021/03/22 04:02:51;;;;;;;9.10;4.07;;;0.00;99.90;;;;;;5029352;28;20206;-71
2021/03/22 04:05:18;;;;;;;5.70;3.20;;;0.00;99.90;;;;;;5018747;28;20602;-72
2021/03/22 04:07:44;;;;;;;7.77;3.40;;;0.00;99.90;;;;;;5021714;28;20596;-72
2021/03/22 04:10:12;;;;;;;8.67;3.60;;;0.00;99.90;;;;;;5029370;28;20204;-72
2021/03/22 04:12:38;;;;;;;7.27;3.30;;;0.00;99.90;;;;;;5026200;28;20198;-72
2021/03/22 04:15:08;;;;;;;6.00;3.13;;;0.00;99.90;;;;;;5026272;28;20326;-71
2021/03/22 04:17:35;;;;;;;8.20;3.33;;;0.00;99.90;;;;;;5028234;28;20231;-71
2021/03/22 04:20:01;;;;;;;8.60;3.13;;;0.00;99.90;;;;;;5029649;28;20213;-72
2021/03/22 04:22:27;;;;;;;8.03;3.47;;;0.10;99.90;;;;;;5027469;28;20314;-71
2021/03/22 04:24:54;;;;;;;6.20;4.10;;;0.10;99.90;;;;;;5027844;28;20206;-72
2021/03/22 04:27:20;;;;;;;10.23;3.70;;;0.10;99.90;;;;;;5023530;28;20228;-73
2021/03/22 04:29:47;;;;;;;8.20;4.00;;;0.00;99.90;;;;;;5021270;28;20301;-71
2021/03/22 04:32:14;;;;;;;8.57;3.90;;;0.00;99.90;;;;;;5032168;28;20302;-73
2021/03/22 04:34:40;;;;;;;6.10;3.80;;;0.00;99.90;;;;;;5029578;28;20290;-76
2021/03/22 04:37:08;;;;;;;8.90;3.37;;;0.00;99.90;;;;;;5029284;28;20266;-77
2021/03/22 04:39:34;;;;;;;7.90;3.57;;;0.00;99.90;;;;;;5031578;28;20211;-76
2021/03/22 04:42:01;;;;;;;5.27;3.17;;;0.00;99.90;;;;;;5027251;28;20213;-75
2021/03/22 04:44:28;;;;;;;6.67;3.70;;;0.00;99.90;;;;;;5030547;28;20217;-76
2021/03/22 04:46:54;;;;;;;7.70;3.73;;;-0.10;99.90;;;;;;5024550;28;20215;-75
2021/03/22 04:49:21;;;;;;;5.83;3.37;;;0.00;99.90;;;;;;5030726;28;20267;-76
2021/03/22 04:51:47;;;;;;;8.33;3.27;;;0.00;99.90;;;;;;5029660;28;20211;-76
2021/03/22 04:54:14;;;;;;;5.73;3.20;;;0.00;99.90;;;;;;5032744;28;20239;-77
2021/03/22 04:56:40;;;;;;;11.23;3.47;;;0.00;99.90;;;;;;5028059;28;20678;-75
2021/03/22 04:59:07;;;;;;;8.17;3.70;;;0.10;99.90;;;;;;5027788;28;20294;-75
2021/03/22 05:01:33;;;;;;;5.43;3.57;;;0.10;99.90;;;;;;5027330;28;20731;-74
2021/03/22 05:04:00;;;;;;;8.47;4.10;;;0.10;99.90;;;;;;5031641;28;20325;-76
2021/03/22 05:06:27;;;;;;;6.50;3.40;;;0.20;99.90;;;;;;5027807;28;20238;-75
2021/03/22 05:08:56;;;;;;;8.87;4.20;;;0.20;99.90;;;;;;5026314;28;20226;-75
2021/03/22 05:11:23;;;;;;;7.97;3.80;;;0.20;99.90;;;;;;5031980;28;20203;-75
2021/03/22 05:13:49;;;;;;;10.67;4.20;;;0.30;99.90;;;;;;5025516;28;20287;-76
2021/03/22 05:16:16;;;;;;;6.40;4.47;;;0.40;99.90;;;;;;5026169;28;20207;-75
2021/03/22 05:18:42;;;;;;;7.97;4.57;;;0.50;99.90;;;;;;5031835;28;20647;-76
2021/03/22 05:21:09;;;;;;;7.97;4.47;;;0.50;99.90;;;;;;5025335;28;20214;-75
2021/03/22 05:23:39;;;;;;;11.57;4.70;;;0.60;99.90;;;;;;5033295;28;20210;-75
2021/03/22 05:26:07;;;;;;;11.70;4.77;;;0.70;99.90;;;;;;5030990;28;20238;-75
2021/03/22 05:28:35;;;;;;;10.27;4.47;;;0.70;99.90;;;;;;5029950;28;20579;-75
2021/03/22 05:31:03;;;;;;;12.00;4.77;;;0.80;99.90;;;;;;5036652;28;20238;-76
2021/03/22 05:33:29;;;;;;;10.87;5.17;;;0.90;99.90;;;;;;5029172;28;20692;-76
2021/03/22 05:35:58;;;;;;;10.40;4.87;;;0.90;99.90;;;;;;5032088;28;20333;-76
2021/03/22 05:38:25;;;;;;;11.93;5.23;;;0.90;99.90;;;;;;5029911;28;20301;-75
2021/03/22 05:40:55;;;;;;;13.63;5.17;;;1.00;99.90;;;;;;5022812;28;20670;-76
2021/03/22 05:43:39;;;;;;;9.17;4.53;;;1.00;99.90;;;;;;5025476;28;20557;-76
2021/03/22 05:46:11;;;;;;;8.13;4.10;;;1.10;99.90;;;;;;5028087;28;20298;-75
2021/03/22 05:49:10;;;;;;;7.03;4.47;;;1.20;99.90;;;;;;5023364;28;20211;-76
2021/03/22 05:52:18;;;;;;;9.33;4.83;;;1.20;99.90;;;;;;4999451;28;20573;-75
2021/03/22 05:55:15;;;;;;;10.13;4.97;;;1.30;99.90;;;;;;4990331;28;20214;-75
2021/03/22 05:58:10;;;;;;;11.77;4.47;;;1.30;99.90;;;;;;5025763;28;20265;-77
2021/03/22 06:00:47;;;;;;;7.60;4.13;;;1.40;99.90;;;;;;5032402;28;20597;-75
2021/03/22 06:03:20;;;;;;;12.13;4.63;;;1.50;99.90;;;;;;5033862;28;20430;-75
2021/03/22 06:05:55;;;;;;;8.40;4.27;;;1.60;99.90;;;;;;5023027;28;20235;-75
2021/03/22 06:08:34;;;;;;;11.37;4.67;;;1.70;99.90;;;;;;5027906;28;20216;-76
2021/03/22 06:11:06;;;;;;;9.33;4.03;;;1.70;99.90;;;;;;5029628;28;20738;-75
2021/03/22 06:13:39;;;;;;;8.83;4.97;;;1.80;99.90;;;;;;5033923;28;20297;-76
2021/03/22 06:16:17;;;;;;;9.53;4.30;;;1.80;99.90;;;;;;5025911;28;20234;-77
2021/03/22 06:18:59;;;;;;;8.77;4.47;;;1.80;99.90;;;;;;5032708;28;20207;-76
2021/03/22 06:21:28;;;;;;;6.77;4.60;;;1.80;99.90;;;;;;5038325;28;20664;-76
2021/03/22 06:23:55;;;;;;;10.33;4.80;;;1.80;99.90;;;;;;5034062;28;20245;-76
2021/03/22 06:26:32;;;;;;;7.93;4.53;;;1.80;99.90;;;;;;5034110;28;20279;-75
2021/03/22 06:29:04;;;;;;;13.27;6.07;;;1.80;99.90;;;;;;5024360;28;20651;-75
2021/03/22 06:31:30;;;;;;;9.97;4.70;;;1.90;99.90;;;;;;5028704;28;20287;-76
2021/03/22 06:34:02;;;;;;;7.63;4.83;;;1.90;99.90;;;;;;5030868;28;20202;-74
2021/03/22 06:36:28;;;;;;;10.70;4.77;;;2.00;99.90;;;;;;5029282;28;20256;-77
2021/03/22 06:38:56;;;;;;;9.83;4.60;;;2.00;99.90;;;;;;5036525;28;20243;-76
2021/03/22 06:41:33;;;;;;;12.77;5.27;;;2.10;99.90;;;;;;5036573;28;20233;-76
2021/03/22 06:44:06;;;;;;;9.83;5.10;;;2.10;99.90;;;;;;5041353;28;20265;-77
2021/03/22 06:46:33;;;;;;;8.63;4.93;;;2.20;99.90;;;;;;5038840;28;20294;-78
2021/03/22 06:49:03;;;;;;;12.67;5.10;;;2.30;99.90;;;;;;5031242;28;20261;-77
2021/03/22 06:51:30;;;;;;;8.93;4.67;;;2.40;99.90;;;;;;5034223;28;20262;-76
2021/03/22 06:54:00;;;;;;;10.03;5.03;;;2.60;99.90;;;;;;5037856;28;20282;-77
2021/03/22 06:56:29;;;;;;;12.90;5.60;;;2.70;99.90;;;;;;5040309;28;20202;-77
2021/03/22 06:59:12;;;;;;;9.43;5.40;;;2.80;99.90;;;;;;5032628;28;20244;-76
2021/03/22 07:01:40;;;;;;;11.07;5.47;;;2.90;99.90;;;;;;5033169;28;20742;-76
2021/03/22 07:04:21;;;;;;;9.30;5.53;;;3.00;99.90;;;;;;5033895;28;20565;-78
2021/03/22 07:07:09;;;;;;;12.33;6.47;;;3.20;99.90;;;;;;5038291;28;20866;-75
2021/03/22 07:09:40;;;;;;;9.07;5.00;;;3.20;99.90;;;;;;5032855;28;20226;-78
2021/03/22 07:12:19;;;;;;;9.23;5.17;;;3.30;99.90;;;;;;5026796;28;20209;-76
2021/03/22 07:14:46;;;;;;;9.83;5.20;;;3.30;99.90;;;;;;5027038;28;20230;-72
2021/03/22 07:17:17;;;;;;;9.43;5.40;;;3.30;99.90;;;;;;5034154;28;20317;-71
2021/03/22 07:19:43;;;;;;;10.83;5.60;;;3.30;99.90;;;;;;5032883;28;20221;-71
2021/03/22 07:22:21;;;;;;;11.77;5.33;;;3.40;99.90;;;;;;5034048;28;20349;-73
2021/03/22 07:24:53;;;;;;;10.53;5.47;;;3.50;99.90;;;;;;5034503;28;20207;-73
2021/03/22 07:27:23;;;;;;;10.77;4.83;;;3.60;99.90;;;;;;5031482;28;20234;-70
2021/03/22 07:30:29;;;;;;;12.43;5.97;;;3.70;99.90;;;;;;5027537;28;20293;-74
2021/03/22 07:33:22;;;;;;;10.97;4.87;;;3.70;99.90;;;;;;5026980;28;20210;-72
2021/03/22 07:36:03;;;;;;;7.80;4.27;;;3.80;99.90;;;;;;5034660;28;20230;-74
2021/03/22 07:38:59;;;;;;;9.80;4.33;;;3.90;99.90;;;;;;5035457;28;20256;-72
2021/03/22 07:41:35;;;;;;;10.27;4.97;;;4.10;99.90;;;;;;5025214;28;20211;-73
2021/03/22 07:44:28;;;;;;;8.83;4.17;;;4.20;99.90;;;;;;5030555;28;20276;-75
2021/03/22 07:47:11;;;;;;;9.87;4.57;;;4.30;99.90;;;;;;5033948;28;20640;-72
2021/03/22 07:49:57;;;;;;;8.67;4.33;;;4.40;99.90;;;;;;5030796;28;20198;-72
2021/03/22 07:52:30;;;;;;;6.97;3.80;;;4.60;99.90;;;;;;5033562;28;20282;-71
2021/03/22 07:55:17;;;;;;;10.17;4.97;;;4.80;99.90;;;;;;5033721;28;20298;-72
2021/03/22 07:57:50;;;;;;;9.30;4.83;;;5.00;99.90;;;;;;5031412;28;20289;-73
2021/03/22 08:00:22;;;;;;;7.37;4.57;;;5.20;99.90;;;;;;5029980;28;20218;-73
2021/03/22 08:03:12;;;;;;;9.73;4.47;;;5.30;99.90;;;;;;5033139;28;21758;-73
2021/03/22 08:05:48;;;;;;;11.87;4.10;;;5.10;99.90;;;;;;5032245;28;20314;-72
2021/03/22 08:08:25;;;;;;;11.60;5.17;;;5.10;99.90;;;;;;5031665;28;20260;-73
2021/03/22 08:10:59;;;;;;;7.80;4.57;;;4.80;99.90;;;;;;5032761;28;20256;-72
2021/03/22 08:13:40;;;;;;;10.57;4.40;;;4.50;99.90;;;;;;5029813;28;20590;-73
2021/03/22 08:16:38;;;;;;;8.97;4.70;;;4.40;99.90;;;;;;5033274;28;20551;-73
2021/03/22 08:19:13;;;;;;;10.20;5.20;;;4.10;99.90;;;;;;5033369;28;20742;-75
2021/03/22 08:21:44;;;;;;;9.47;4.87;;;4.10;99.90;;;;;;5035324;28;20586;-74
2021/03/22 08:24:18;;;;;;;48.47;29.40;;;4.00;99.90;;;;;;5033540;28;20225;-74
2021/03/22 08:26:53;;;;;;;17.33;11.03;;;4.10;99.90;;;;;;5033955;28;20281;-72
2021/03/22 08:29:24;;;;;;;10.57;5.80;;;4.10;99.90;;;;;;5033721;28;20245;-72
2021/03/22 08:31:58;;;;;;;7.30;4.83;;;4.00;99.90;;;;;;5034201;28;20311;-73
2021/03/22 08:34:33;;;;;;;10.13;4.60;;;4.20;99.90;;;;;;5033818;28;20687;-73
2021/03/22 08:37:06;;;;;;;9.13;4.53;;;4.40;99.90;;;;;;5033317;28;20234;-72
2021/03/22 08:39:39;;;;;;;7.90;4.47;;;4.80;99.90;;;;;;5032293;28;20556;-73
2021/03/22 08:42:13;;;;;;;8.60;5.03;;;5.10;99.90;;;;;;5032332;28;20246;-73
2021/03/22 08:44:45;;;;;;;8.07;4.33;;;5.30;99.90;;;;;;5034295;28;20202;-72
2021/03/22 08:47:36;;;;;;;9.20;4.90;;;5.50;99.90;;;;;;5024618;28;20281;-73
2021/03/22 08:50:10;;;;;;;11.33;4.63;;;5.70;99.90;;;;;;5028202;28;20209;-74
2021/03/22 08:52:41;;;;;;;7.07;3.80;;;6.10;99.90;;;;;;5036115;28;20206;-76
2021/03/22 08:55:11;;;;;;;9.10;3.93;;;6.40;99.90;;;;;;5037599;28;20711;-73
2021/03/22 08:58:05;;;;;;;9.20;4.30;;;6.60;99.90;;;;;;5036605;28;20648;-73
2021/03/22 09:00:37;;;;;;;8.90;4.83;;;6.80;99.90;;;;;;5037277;28;20283;-76
2021/03/22 09:03:21;;;;;;;6.80;3.87;;;6.90;99.90;;;;;;5036001;28;20215;-76
2021/03/22 09:06:07;;;;;;;7.97;4.73;;;6.80;99.90;;;;;;5040731;28;20230;-78
2021/03/22 09:08:35;;;;;;;10.27;5.00;;;6.70;99.90;;;;;;5047945;28;20305;-78
2021/03/22 09:11:15;;;;;;;8.53;4.73;;;6.50;99.90;;;;;;5030801;28;20288;-72
2021/03/22 09:13:52;;;;;;;12.73;5.00;;;6.40;99.90;;;;;;5035934;28;20309;-73
2021/03/22 09:16:41;;;;;;;6.90;4.07;;;6.40;99.90;;;;;;5036864;28;20297;-74
2021/03/22 09:19:38;;;;;;;8.37;3.90;;;6.20;99.90;;;;;;5036808;28;20582;-74
2021/03/22 09:22:44;;;;;;;10.57;4.60;;;6.30;99.90;;;;;;5035446;28;20593;-72
2021/03/22 09:25:14;;;;;;;10.97;4.53;;;7.00;99.90;;;;;;5036498;28;20238;-72
2021/03/22 09:27:41;;;;;;;9.20;4.40;;;10.60;99.90;;;;;;5038673;28;20229;-76
2021/03/22 09:30:40;;;;;;;7.57;4.10;;;13.60;77.10;;;;;;5040645;28;20653;-75
2021/03/22 09:33:07;;;;;;;5.43;3.80;;;16.50;69.20;;;;;;5007602;28;20298;-75
2021/03/22 09:36:07;;;;;;;8.90;4.57;;;20.30;52.30;;;;;;5014487;28;20290;-77
2021/03/22 09:38:46;;;;;;;7.53;4.03;;;23.70;42.80;;;;;;5020666;28;20289;-74
2021/03/22 09:41:12;;;;;;;6.32;3.90;;;27.00;36.20;;;;;;5035611;28;20321;-72
2021/03/22 09:43:47;;;;;;;5.78;3.40;;;29.30;32.90;;;;;;5035394;28;20218;-73
2021/03/22 09:46:33;;;;;;;4.95;3.05;;;31.40;29.60;;;;;;5034786;28;20550;-71
2021/03/22 09:49:24;;;;;;;5.18;3.60;;;32.50;28.00;;;;;;5028825;28;20230;-73
2021/03/22 09:51:57;;;;;;;3.42;2.97;;;31.70;27.80;;;;;;5031001;28;20540;-71
2021/03/22 09:54:45;;;;;;;3.45;2.60;;;31.50;28.10;;;;;;5031500;28;20668;-71
2021/03/22 09:57:40;;;;;;;5.55;2.90;;;32.00;27.70;;;;;;5028881;28;20225;-72
2021/03/22 10:00:54;;;;;;;6.07;3.25;;;33.30;26.60;;;;;;5029578;28;20205;-72
2021/03/22 10:03:41;;;;;;;6.07;3.13;;;34.30;25.30;;;;;;5034269;28;20195;-73
2021/03/22 10:06:29;;;;;;;3.90;2.55;;;35.00;25.50;;;;;;5034672;28;20249;-73
2021/03/22 10:08:56;;;;;;;4.28;2.72;;;35.20;24.80;;;;;;5035127;28;20313;-72
2021/03/22 10:11:27;;;;;;;3.55;2.10;;;35.60;23.70;;;;;;5034500;28;20736;-72
2021/03/22 10:14:00;;;;;;;4.95;1.92;;;35.60;23.00;;;;;;5032302;28;20555;-72
2021/03/22 10:16:30;;;;;;;2.95;1.60;;;34.90;23.40;;;;;;5031999;28;20213;-73
2021/03/22 10:18:59;;;;;;;2.50;1.83;;;34.00;23.50;;;;;;5035461;28;20230;-71
2021/03/22 10:21:29;;;;;;;3.90;2.35;;;32.50;23.50;;;;;;5034578;28;20699;-71
2021/03/22 10:24:00;;;;;;;2.47;1.95;;;30.20;25.20;;;;;;5035334;28;20210;-72
2021/03/22 10:26:35;;;;;;;4.25;2.30;;;28.90;26.70;;;;;;5025730;28;20214;-73
2021/03/22 10:29:23;;;;;;;4.07;2.55;;;28.90;27.20;;;;;;5034807;28;20218;-72
2021/03/22 10:31:57;;;;;;;3.90;2.65;;;29.10;26.60;;;;;;5034486;28;20209;-72
2021/03/22 10:34:26;;;;;;;4.95;2.08;;;29.60;27.20;;;;;;5035129;28;20269;-73
2021/03/22 10:36:53;;;;;;;6.15;2.22;;;30.80;25.60;;;;;;5034919;28;20210;-72
2021/03/22 10:39:29;;;;;;;3.88;2.05;;;31.80;24.70;;;;;;5034769;28;20209;-72
2021/03/22 10:41:56;;;;;;;2.80;2.05;;;32.50;24.70;;;;;;5034739;28;20210;-71
2021/03/22 10:44:25;;;;;;;4.22;2.30;;;33.20;24.70;;;;;;5034262;28;20211;-72
2021/03/22 10:47:10;;;;;;;7.13;2.55;;;34.20;24.00;;;;;;5035151;28;20210;-71
2021/03/22 10:49:37;;;;;;;4.13;2.58;;;34.70;23.30;;;;;;5034712;28;20230;-73
2021/03/22 10:52:20;;;;;;;4.63;2.67;;;34.80;22.60;;;;;;5033690;28;20651;-71
2021/03/22 10:54:48;;;;;;;4.22;3.03;;;34.50;22.90;;;;;;5033984;28;20202;-75
2021/03/22 10:57:20;;;;;;;7.78;2.50;;;34.80;22.90;;;;;;5033742;28;20206;-74
2021/03/22 10:59:51;;;;;;;3.42;2.20;;;35.50;22.50;;;;;;5033349;28;20218;-73
2021/03/22 11:02:27;;;;;;;5.05;2.58;;;35.80;22.20;;;;;;5027517;28;20231;-71
2021/03/22 11:04:55;;;;;;;4.10;2.85;;;35.60;21.70;;;;;;5030503;28;20205;-72
2021/03/22 11:07:25;;;;;;;3.85;2.63;;;33.10;22.40;;;;;;5034064;28;20281;-72
2021/03/22 11:09:55;;;;;;;6.03;2.83;;;31.40;24.80;;;;;;5033894;28;20650;-73
2021/03/22 11:12:23;;;;;;;4.63;2.88;;;30.10;25.90;;;;;;5034997;28;20253;-73
2021/03/22 11:14:54;;;;;;;6.07;3.20;;;30.10;25.20;;;;;;5032960;28;20223;-72
2021/03/22 11:17:23;;;;;;;3.00;2.30;;;29.50;24.80;;;;;;5033524;28;20194;-74
2021/03/22 11:19:50;;;;;;;3.47;2.28;;;28.70;25.40;;;;;;5033932;28;20242;-72
2021/03/22 11:22:25;;;;;;;6.68;2.25;;;27.40;26.00;;;;;;5033339;28;20711;-73
2021/03/22 11:24:54;;;;;;;4.28;2.15;;;25.70;25.70;;;;;;5032699;28;20232;-73
2021/03/22 11:27:23;;;;;;;5.00;1.90;;;23.90;26.20;;;;;;5033223;28;20241;-73
2021/03/22 11:30:01;;;;;;;4.82;2.83;;;22.90;30.00;;;;;;5033185;28;20212;-73
2021/03/22 11:32:30;;;;;;;4.72;2.28;;;22.10;28.00;;;;;;5033953;28;20651;-72
2021/03/22 11:34:57;;;;;;;4.53;2.28;;;20.80;28.50;;;;;;5033992;28;20210;-71
2021/03/22 11:37:26;;;;;;;3.50;1.75;;;19.80;28.90;;;;;;5034472;28;20580;-73
2021/03/22 11:39:58;;;;;;;5.90;2.08;;;18.50;29.60;;;;;;5033183;28;20579;-72
2021/03/22 11:42:34;;;;;;;3.50;2.50;;;17.40;30.80;;;;;;5031597;28;20736;-73
2021/03/22 11:45:01;;;;;;;5.07;2.17;;;16.30;32.00;;;;;;5033132;28;20555;-73
2021/03/22 11:47:40;;;;;;;5.60;2.23;;;15.30;33.00;;;;;;5035465;28;20206;-72
2021/03/22 11:50:35;;;;;;;3.00;1.80;;;14.50;34.70;;;;;;5031102;28;20198;-72
2021/03/22 11:53:08;;;;;;;6.37;1.90;;;14.10;36.60;;;;;;5033235;28;20740;-73
2021/03/22 11:55:39;;;;;;;2.70;1.50;;;13.90;36.50;;;;;;5033205;28;20269;-72
2021/03/22 11:58:25;;;;;;;2.87;1.70;;;13.80;36.40;;;;;;5033129;28;20218;-73
2021/03/22 12:00:52;;;;;;;4.23;1.97;;;13.60;36.30;;;;;;5026719;28;20304;-73
2021/03/22 12:03:27;;;;;;;4.57;2.30;;;13.40;36.60;;;;;;5033910;28;20603;-72
2021/03/22 12:06:05;;;;;;;2.80;1.70;;;13.60;37.80;;;;;;5032530;28;20241;-73
2021/03/22 12:08:34;;;;;;;4.00;2.03;;;13.80;36.90;;;;;;5030977;28;20301;-72
2021/03/22 12:11:01;;;;;;;2.60;1.60;;;13.70;36.30;;;;;;5035264;28;20298;-75
2021/03/22 12:13:29;;;;;;;3.50;1.70;;;13.30;36.10;;;;;;5035062;28;20715;-75
2021/03/22 12:15:55;;;;;;;3.20;1.70;;;12.90;36.50;;;;;;5033946;28;20206;-76
2021/03/22 12:18:27;;;;;;;2.40;1.63;;;12.30;37.00;;;;;;5033276;28;20305;-77
2021/03/22 12:20:53;;;;;;;3.80;1.93;;;11.80;37.10;;;;;;5034191;28;20206;-76
2021/03/22 12:23:19;;;;;;;3.67;1.90;;;11.30;37.30;;;;;;5034210;28;20266;-74
2021/03/22 12:25:46;;;;;;;2.97;1.40;;;11.10;38.70;;;;;;5034144;28;20221;-75
2021/03/22 12:28:13;;;;;;;6.50;1.47;;;11.30;39.50;;;;;;5037637;28;20230;-76
2021/03/22 12:30:40;;;;;;;6.07;1.90;;;11.90;40.40;;;;;;5036925;28;20274;-74
2021/03/22 12:33:07;;;;;;;2.03;1.63;;;12.30;38.20;;;;;;5039297;28;20686;-75
2021/03/22 12:35:36;;;;;;;2.70;1.30;;;12.40;37.30;;;;;;5036498;28;20256;-76
2021/03/22 12:38:04;;;;;;;1.90;1.37;;;12.30;37.00;;;;;;5035204;28;20280;-76
2021/03/22 12:40:30;;;;;;;3.03;1.37;;;12.10;37.20;;;;;;5037084;28;20249;-73
2021/03/22 12:42:59;;;;;;;2.93;1.13;;;11.90;37.10;;;;;;5036394;28;20630;-73
2021/03/22 12:45:27;;;;;;;3.97;1.50;;;11.70;37.10;;;;;;5036288;28;20639;-73
2021/03/22 12:47:55;;;;;;;1.97;1.20;;;11.40;37.10;;;;;;5036696;28;20313;-76
2021/03/22 12:50:25;;;;;;;3.90;1.37;;;11.40;37.40;;;;;;5036141;28;20679;-77
2021/03/22 12:52:53;;;;;;;1.90;1.40;;;11.30;36.90;;;;;;5032891;28;20203;-77
2021/03/22 12:55:22;;;;;;;3.27;1.30;;;11.10;36.30;;;;;;5043711;28;20190;-79
2021/03/22 12:57:48;;;;;;;1.93;1.30;;;10.80;36.30;;;;;;5039504;28;20210;-78
2021/03/22 13:00:16;;;;;;;4.07;1.30;;;10.50;36.90;;;;;;5040968;28;20230;-79
2021/03/22 13:02:45;;;;;;;4.57;1.50;;;10.20;37.30;;;;;;5043306;28;20199;-79
2021/03/22 13:05:18;;;;;;;2.67;1.27;;;10.00;37.70;;;;;;5042407;28;20237;-79
2021/03/22 13:07:45;;;;;;;3.20;1.37;;;9.70;39.40;;;;;;5030181;28;20290;-72
2021/03/22 13:10:13;;;;;;;5.43;2.13;;;9.40;39.90;;;;;;5036595;28;20552;-71
2021/03/22 13:12:40;;;;;;;3.93;1.50;;;9.20;40.90;;;;;;5035946;28;20210;-73
2021/03/22 13:15:09;;;;;;;3.60;1.20;;;9.00;40.80;;;;;;5035379;28;20707;-72
2021/03/22 13:17:36;;;;;;;4.93;1.50;;;8.80;41.10;;;;;;5029765;28;20253;-72
2021/03/22 13:20:06;;;;;;;3.40;1.20;;;8.70;41.40;;;;;;5037038;28;20215;-70
2021/03/22 13:22:33;;;;;;;6.90;1.53;;;8.60;41.70;;;;;;5035453;28;20207;-70